sensor_id;sensor_type;location;lat;lon;timestamp;P1;durP1;ratioP1;P2;durP2;ratioP2
22937;SDS011;11634;42.734;23.298;2023-07-20T00:01:03;7.30;;;3.08;;
22937;SDS011;11634;42.734;23.298;2023-07-20T00:03:29;8.27;;;2.45;;
22937;SDS011;11634;42.734;23.298;2023-07-20T00:05:54;7.85;;;2.80;;
22937;SDS011;11634;42.734;23.298;2023-07-20T00:10:55;4.63;;;2.47;;
22937;SDS011;11634;42.734;23.298;2023-07-20T00:13:20;11.02;;;3.53;;
22937;SDS011;11634;42.734;23.298;2023-07-20T00:15:46;7.10;;;3.00;;
22937;SDS011;11634;42.734;23.298;2023-07-20T00:18:11;6.20;;;2.72;;
22937;SDS011;11634;42.734;23.298;2023-07-20T00:20:37;6.57;;;2.85;;
22937;SDS011;11634;42.734;23.298;2023-07-20T00:23:02;7.05;;;2.70;;
22937;SDS011;11634;42.734;23.298;2023-07-20T00:25:28;7.72;;;3.10;;
22937;SDS011;11634;42.734;23.298;2023-07-20T00:27:53;8.20;;;3.08;;
22937;SDS011;11634;42.734;23.298;2023-07-20T00:30:19;7.57;;;2.53;;
22937;SDS011;11634;42.734;23.298;2023-07-20T00:32:45;9.63;;;2.72;;
22937;SDS011;11634;42.734;23.298;2023-07-20T00:35:10;8.23;;;3.08;;
22937;SDS011;11634;42.734;23.298;2023-07-20T00:37:36;6.13;;;3.00;;
22937;SDS011;11634;42.734;23.298;2023-07-20T00:40:02;7.38;;;2.88;;
22937;SDS011;11634;42.734;23.298;2023-07-20T00:42:30;7.50;;;2.55;;
22937;SDS011;11634;42.734;23.298;2023-07-20T00:44:56;7.10;;;2.47;;
22937;SDS011;11634;42.734;23.298;2023-07-20T00:47:21;5.45;;;2.75;;
22937;SDS011;11634;42.734;23.298;2023-07-20T00:49:47;10.23;;;3.38;;
22937;SDS011;11634;42.734;23.298;2023-07-20T00:52:13;4.57;;;2.10;;
22937;SDS011;11634;42.734;23.298;2023-07-20T00:54:45;8.98;;;2.58;;
22937;SDS011;11634;42.734;23.298;2023-07-20T00:57:10;7.97;;;2.92;;
22937;SDS011;11634;42.734;23.298;2023-07-20T00:59:39;12.27;;;2.22;;
22937;SDS011;11634;42.734;23.298;2023-07-20T01:02:04;8.00;;;2.60;;
22937;SDS011;11634;42.734;23.298;2023-07-20T01:04:31;5.60;;;2.08;;
22937;SDS011;11634;42.734;23.298;2023-07-20T01:07:10;6.70;;;2.53;;
22937;SDS011;11634;42.734;23.298;2023-07-20T01:12:08;7.30;;;2.83;;
22937;SDS011;11634;42.734;23.298;2023-07-20T01:14:35;7.32;;;2.78;;
22937;SDS011;11634;42.734;23.298;2023-07-20T01:17:02;10.80;;;2.90;;
22937;SDS011;11634;42.734;23.298;2023-07-20T01:19:27;6.93;;;2.70;;
22937;SDS011;11634;42.734;23.298;2023-07-20T01:22:09;8.23;;;2.90;;
22937;SDS011;11634;42.734;23.298;2023-07-20T01:27:20;7.30;;;2.70;;
22937;SDS011;11634;42.734;23.298;2023-07-20T01:32:26;9.63;;;2.95;;
22937;SDS011;11634;42.734;23.298;2023-07-20T01:34:52;7.75;;;2.78;;
22937;SDS011;11634;42.734;23.298;2023-07-20T01:37:18;6.80;;;3.00;;
22937;SDS011;11634;42.734;23.298;2023-07-20T01:39:45;8.85;;;3.38;;
22937;SDS011;11634;42.734;23.298;2023-07-20T01:42:11;5.45;;;2.47;;
22937;SDS011;11634;42.734;23.298;2023-07-20T01:44:37;6.70;;;2.85;;
22937;SDS011;11634;42.734;23.298;2023-07-20T01:47:04;4.85;;;2.47;;
22937;SDS011;11634;42.734;23.298;2023-07-20T01:49:30;6.40;;;3.03;;
22937;SDS011;11634;42.734;23.298;2023-07-20T01:51:55;6.43;;;2.95;;
22937;SDS011;11634;42.734;23.298;2023-07-20T01:54:20;11.00;;;3.00;;
22937;SDS011;11634;42.734;23.298;2023-07-20T01:56:46;11.18;;;3.00;;
22937;SDS011;11634;42.734;23.298;2023-07-20T01:59:12;6.47;;;2.60;;
22937;SDS011;11634;42.734;23.298;2023-07-20T02:01:37;6.72;;;2.50;;
22937;SDS011;11634;42.734;23.298;2023-07-20T02:04:03;6.72;;;3.00;;
22937;SDS011;11634;42.734;23.298;2023-07-20T02:06:28;10.60;;;2.65;;
22937;SDS011;11634;42.734;23.298;2023-07-20T02:08:54;9.65;;;2.83;;
22937;SDS011;11634;42.734;23.298;2023-07-20T02:11:20;8.52;;;2.92;;
22937;SDS011;11634;42.734;23.298;2023-07-20T02:13:45;7.03;;;3.40;;
22937;SDS011;11634;42.734;23.298;2023-07-20T02:16:11;7.18;;;3.13;;
22937;SDS011;11634;42.734;23.298;2023-07-20T02:18:36;5.15;;;2.70;;
22937;SDS011;11634;42.734;23.298;2023-07-20T02:21:02;6.95;;;2.47;;
22937;SDS011;11634;42.734;23.298;2023-07-20T02:23:27;7.05;;;3.03;;
22937;SDS011;11634;42.734;23.298;2023-07-20T02:25:53;9.63;;;2.95;;
22937;SDS011;11634;42.734;23.298;2023-07-20T02:28:18;10.35;;;3.63;;
22937;SDS011;11634;42.734;23.298;2023-07-20T02:30:44;9.10;;;2.78;;
22937;SDS011;11634;42.734;23.298;2023-07-20T02:33:09;9.45;;;2.65;;
22937;SDS011;11634;42.734;23.298;2023-07-20T02:35:36;8.75;;;3.13;;
22937;SDS011;11634;42.734;23.298;2023-07-20T02:38:01;8.25;;;3.45;;
22937;SDS011;11634;42.734;23.298;2023-07-20T02:40:28;12.30;;;3.28;;
22937;SDS011;11634;42.734;23.298;2023-07-20T02:42:54;9.10;;;3.30;;
22937;SDS011;11634;42.734;23.298;2023-07-20T02:45:19;7.57;;;2.95;;
22937;SDS011;11634;42.734;23.298;2023-07-20T02:47:45;13.88;;;3.20;;
22937;SDS011;11634;42.734;23.298;2023-07-20T02:50:10;9.48;;;3.85;;
22937;SDS011;11634;42.734;23.298;2023-07-20T02:52:38;10.85;;;3.25;;
22937;SDS011;11634;42.734;23.298;2023-07-20T02:55:04;13.70;;;3.88;;
22937;SDS011;11634;42.734;23.298;2023-07-20T02:57:30;9.52;;;3.85;;
22937;SDS011;11634;42.734;23.298;2023-07-20T02:59:55;9.70;;;3.63;;
22937;SDS011;11634;42.734;23.298;2023-07-20T03:02:21;7.15;;;3.08;;
22937;SDS011;11634;42.734;23.298;2023-07-20T03:04:46;9.70;;;3.70;;
22937;SDS011;11634;42.734;23.298;2023-07-20T03:07:12;5.70;;;2.65;;
22937;SDS011;11634;42.734;23.298;2023-07-20T03:09:37;10.45;;;3.65;;
22937;SDS011;11634;42.734;23.298;2023-07-20T03:12:03;10.40;;;3.13;;
22937;SDS011;11634;42.734;23.298;2023-07-20T03:14:30;10.35;;;3.28;;
22937;SDS011;11634;42.734;23.298;2023-07-20T03:16:57;8.57;;;3.80;;
22937;SDS011;11634;42.734;23.298;2023-07-20T03:19:22;8.57;;;3.65;;
22937;SDS011;11634;42.734;23.298;2023-07-20T03:21:48;9.10;;;3.22;;
22937;SDS011;11634;42.734;23.298;2023-07-20T03:24:13;9.07;;;3.05;;
22937;SDS011;11634;42.734;23.298;2023-07-20T03:26:39;7.20;;;2.83;;
22937;SDS011;11634;42.734;23.298;2023-07-20T03:29:06;7.15;;;2.95;;
22937;SDS011;11634;42.734;23.298;2023-07-20T03:31:32;8.10;;;3.35;;
22937;SDS011;11634;42.734;23.298;2023-07-20T03:33:58;9.38;;;3.22;;
22937;SDS011;11634;42.734;23.298;2023-07-20T03:36:23;7.82;;;3.40;;
22937;SDS011;11634;42.734;23.298;2023-07-20T03:38:49;9.57;;;3.85;;
22937;SDS011;11634;42.734;23.298;2023-07-20T03:41:15;11.20;;;4.00;;
22937;SDS011;11634;42.734;23.298;2023-07-20T03:43:41;10.88;;;3.92;;
22937;SDS011;11634;42.734;23.298;2023-07-20T03:46:07;8.23;;;3.50;;
22937;SDS011;11634;42.734;23.298;2023-07-20T03:48:33;12.45;;;3.50;;
22937;SDS011;11634;42.734;23.298;2023-07-20T03:50:58;6.35;;;3.60;;
22937;SDS011;11634;42.734;23.298;2023-07-20T03:53:25;9.27;;;3.72;;
22937;SDS011;11634;42.734;23.298;2023-07-20T03:55:51;8.23;;;3.70;;
22937;SDS011;11634;42.734;23.298;2023-07-20T03:58:17;11.32;;;3.97;;
22937;SDS011;11634;42.734;23.298;2023-07-20T04:00:47;13.10;;;4.53;;
22937;SDS011;11634;42.734;23.298;2023-07-20T04:03:12;13.50;;;4.80;;
22937;SDS011;11634;42.734;23.298;2023-07-20T04:05:38;12.55;;;4.45;;
22937;SDS011;11634;42.734;23.298;2023-07-20T04:08:10;12.98;;;4.35;;
22937;SDS011;11634;42.734;23.298;2023-07-20T04:10:39;10.73;;;4.28;;
22937;SDS011;11634;42.734;23.298;2023-07-20T04:13:05;13.02;;;4.25;;
22937;SDS011;11634;42.734;23.298;2023-07-20T04:15:31;11.77;;;4.32;;
22937;SDS011;11634;42.734;23.298;2023-07-20T04:17:56;12.93;;;4.80;;
22937;SDS011;11634;42.734;23.298;2023-07-20T04:20:22;10.43;;;4.55;;
22937;SDS011;11634;42.734;23.298;2023-07-20T04:22:48;16.77;;;4.35;;
22937;SDS011;11634;42.734;23.298;2023-07-20T04:25:14;16.83;;;4.55;;
22937;SDS011;11634;42.734;23.298;2023-07-20T04:27:40;11.25;;;4.90;;
22937;SDS011;11634;42.734;23.298;2023-07-20T04:30:07;13.52;;;4.13;;
22937;SDS011;11634;42.734;23.298;2023-07-20T04:32:32;9.20;;;4.25;;
22937;SDS011;11634;42.734;23.298;2023-07-20T04:35:00;11.63;;;4.20;;
22937;SDS011;11634;42.734;23.298;2023-07-20T04:37:25;6.72;;;4.32;;
22937;SDS011;11634;42.734;23.298;2023-07-20T04:39:51;12.02;;;5.55;;
22937;SDS011;11634;42.734;23.298;2023-07-20T04:42:16;9.38;;;5.45;;
22937;SDS011;11634;42.734;23.298;2023-07-20T04:44:42;11.45;;;5.65;;
22937;SDS011;11634;42.734;23.298;2023-07-20T04:47:08;10.75;;;4.65;;
22937;SDS011;11634;42.734;23.298;2023-07-20T04:49:36;11.55;;;4.90;;
22937;SDS011;11634;42.734;23.298;2023-07-20T04:52:03;12.48;;;5.07;;
22937;SDS011;11634;42.734;23.298;2023-07-20T04:54:30;11.88;;;5.05;;
22937;SDS011;11634;42.734;23.298;2023-07-20T04:56:56;10.00;;;5.03;;
22937;SDS011;11634;42.734;23.298;2023-07-20T04:59:22;13.80;;;5.22;;
22937;SDS011;11634;42.734;23.298;2023-07-20T05:01:48;10.45;;;4.95;;
22937;SDS011;11634;42.734;23.298;2023-07-20T05:04:15;11.98;;;4.93;;
22937;SDS011;11634;42.734;23.298;2023-07-20T05:06:40;7.90;;;4.25;;
22937;SDS011;11634;42.734;23.298;2023-07-20T05:09:06;7.38;;;4.03;;
22937;SDS011;11634;42.734;23.298;2023-07-20T05:11:32;12.13;;;4.90;;
22937;SDS011;11634;42.734;23.298;2023-07-20T05:13:59;9.90;;;5.00;;
22937;SDS011;11634;42.734;23.298;2023-07-20T05:16:24;8.48;;;4.13;;
22937;SDS011;11634;42.734;23.298;2023-07-20T05:18:50;9.65;;;4.07;;
22937;SDS011;11634;42.734;23.298;2023-07-20T05:21:16;8.77;;;4.13;;
22937;SDS011;11634;42.734;23.298;2023-07-20T05:23:42;8.90;;;4.72;;
22937;SDS011;11634;42.734;23.298;2023-07-20T05:26:09;9.40;;;4.10;;
22937;SDS011;11634;42.734;23.298;2023-07-20T05:28:34;8.90;;;3.83;;
22937;SDS011;11634;42.734;23.298;2023-07-20T05:31:02;6.03;;;3.40;;
22937;SDS011;11634;42.734;23.298;2023-07-20T05:33:27;7.57;;;3.78;;
22937;SDS011;11634;42.734;23.298;2023-07-20T05:35:53;9.32;;;4.13;;
22937;SDS011;11634;42.734;23.298;2023-07-20T05:38:18;9.63;;;3.72;;
22937;SDS011;11634;42.734;23.298;2023-07-20T05:40:44;10.80;;;4.47;;
22937;SDS011;11634;42.734;23.298;2023-07-20T05:43:10;11.48;;;3.88;;
22937;SDS011;11634;42.734;23.298;2023-07-20T05:45:36;8.13;;;4.20;;
22937;SDS011;11634;42.734;23.298;2023-07-20T05:48:10;11.85;;;4.25;;
22937;SDS011;11634;42.734;23.298;2023-07-20T05:50:37;10.73;;;4.85;;
22937;SDS011;11634;42.734;23.298;2023-07-20T05:53:02;11.18;;;4.38;;
22937;SDS011;11634;42.734;23.298;2023-07-20T05:55:27;11.00;;;4.63;;
22937;SDS011;11634;42.734;23.298;2023-07-20T05:57:53;12.88;;;5.50;;
22937;SDS011;11634;42.734;23.298;2023-07-20T06:00:21;11.75;;;5.45;;
22937;SDS011;11634;42.734;23.298;2023-07-20T06:02:53;15.52;;;4.55;;
22937;SDS011;11634;42.734;23.298;2023-07-20T06:05:20;11.48;;;4.55;;
22937;SDS011;11634;42.734;23.298;2023-07-20T06:07:46;9.07;;;4.40;;
22937;SDS011;11634;42.734;23.298;2023-07-20T06:10:11;11.38;;;4.70;;
22937;SDS011;11634;42.734;23.298;2023-07-20T06:12:37;12.00;;;4.68;;
22937;SDS011;11634;42.734;23.298;2023-07-20T06:15:03;13.60;;;5.50;;
22937;SDS011;11634;42.734;23.298;2023-07-20T06:17:29;12.55;;;5.05;;
22937;SDS011;11634;42.734;23.298;2023-07-20T06:19:54;13.27;;;4.80;;
22937;SDS011;11634;42.734;23.298;2023-07-20T06:22:20;12.35;;;5.32;;
22937;SDS011;11634;42.734;23.298;2023-07-20T06:24:45;9.52;;;4.50;;
22937;SDS011;11634;42.734;23.298;2023-07-20T06:27:11;11.82;;;4.72;;
22937;SDS011;11634;42.734;23.298;2023-07-20T06:29:37;18.38;;;4.63;;
22937;SDS011;11634;42.734;23.298;2023-07-20T06:32:03;11.50;;;4.32;;
22937;SDS011;11634;42.734;23.298;2023-07-20T06:34:31;12.38;;;3.95;;
22937;SDS011;11634;42.734;23.298;2023-07-20T06:37:02;8.85;;;4.07;;
22937;SDS011;11634;42.734;23.298;2023-07-20T06:39:29;10.00;;;3.53;;
22937;SDS011;11634;42.734;23.298;2023-07-20T06:41:54;11.57;;;4.35;;
22937;SDS011;11634;42.734;23.298;2023-07-20T06:44:20;9.13;;;4.18;;
22937;SDS011;11634;42.734;23.298;2023-07-20T06:46:45;13.65;;;4.22;;
22937;SDS011;11634;42.734;23.298;2023-07-20T06:49:19;9.40;;;3.90;;
22937;SDS011;11634;42.734;23.298;2023-07-20T06:51:48;9.65;;;4.13;;
22937;SDS011;11634;42.734;23.298;2023-07-20T06:54:14;8.63;;;3.85;;
22937;SDS011;11634;42.734;23.298;2023-07-20T06:56:39;13.00;;;4.03;;
22937;SDS011;11634;42.734;23.298;2023-07-20T06:59:04;10.13;;;4.05;;
22937;SDS011;11634;42.734;23.298;2023-07-20T07:01:31;14.68;;;4.53;;
22937;SDS011;11634;42.734;23.298;2023-07-20T07:03:56;12.65;;;4.07;;
22937;SDS011;11634;42.734;23.298;2023-07-20T07:06:23;11.80;;;4.10;;
22937;SDS011;11634;42.734;23.298;2023-07-20T07:08:50;9.90;;;3.80;;
22937;SDS011;11634;42.734;23.298;2023-07-20T07:11:16;13.35;;;4.65;;
22937;SDS011;11634;42.734;23.298;2023-07-20T07:13:41;11.15;;;3.72;;
22937;SDS011;11634;42.734;23.298;2023-07-20T07:16:07;14.98;;;4.97;;
22937;SDS011;11634;42.734;23.298;2023-07-20T07:18:32;10.55;;;4.25;;
22937;SDS011;11634;42.734;23.298;2023-07-20T07:20:58;7.90;;;3.78;;
22937;SDS011;11634;42.734;23.298;2023-07-20T07:23:23;10.45;;;4.00;;
22937;SDS011;11634;42.734;23.298;2023-07-20T07:25:48;7.28;;;3.38;;
22937;SDS011;11634;42.734;23.298;2023-07-20T07:28:14;8.15;;;3.50;;
22937;SDS011;11634;42.734;23.298;2023-07-20T07:30:39;8.23;;;3.35;;
22937;SDS011;11634;42.734;23.298;2023-07-20T07:33:06;8.25;;;3.30;;
22937;SDS011;11634;42.734;23.298;2023-07-20T07:35:31;8.35;;;3.50;;
22937;SDS011;11634;42.734;23.298;2023-07-20T07:37:58;11.55;;;4.20;;
22937;SDS011;11634;42.734;23.298;2023-07-20T07:40:23;8.68;;;4.00;;
22937;SDS011;11634;42.734;23.298;2023-07-20T07:42:49;9.43;;;3.60;;
22937;SDS011;11634;42.734;23.298;2023-07-20T07:45:14;11.48;;;3.78;;
22937;SDS011;11634;42.734;23.298;2023-07-20T07:47:40;7.85;;;3.80;;
22937;SDS011;11634;42.734;23.298;2023-07-20T07:50:05;9.63;;;3.75;;
22937;SDS011;11634;42.734;23.298;2023-07-20T07:52:31;11.88;;;3.97;;
22937;SDS011;11634;42.734;23.298;2023-07-20T07:54:57;17.60;;;4.15;;
22937;SDS011;11634;42.734;23.298;2023-07-20T07:57:22;8.80;;;3.85;;
22937;SDS011;11634;42.734;23.298;2023-07-20T07:59:48;11.00;;;4.63;;
22937;SDS011;11634;42.734;23.298;2023-07-20T08:02:13;7.72;;;4.10;;
22937;SDS011;11634;42.734;23.298;2023-07-20T08:04:39;11.18;;;4.38;;
22937;SDS011;11634;42.734;23.298;2023-07-20T08:07:07;12.18;;;4.78;;
22937;SDS011;11634;42.734;23.298;2023-07-20T08:09:33;10.32;;;4.30;;
22937;SDS011;11634;42.734;23.298;2023-07-20T08:11:58;10.82;;;4.45;;
22937;SDS011;11634;42.734;23.298;2023-07-20T08:14:25;14.25;;;3.97;;
22937;SDS011;11634;42.734;23.298;2023-07-20T08:16:50;10.23;;;4.40;;
22937;SDS011;11634;42.734;23.298;2023-07-20T08:19:15;10.52;;;3.75;;
22937;SDS011;11634;42.734;23.298;2023-07-20T08:21:41;7.90;;;3.10;;
22937;SDS011;11634;42.734;23.298;2023-07-20T08:24:06;9.38;;;3.63;;
22937;SDS011;11634;42.734;23.298;2023-07-20T08:26:33;11.60;;;3.42;;
22937;SDS011;11634;42.734;23.298;2023-07-20T08:28:59;14.50;;;4.13;;
22937;SDS011;11634;42.734;23.298;2023-07-20T08:31:25;10.18;;;3.58;;
22937;SDS011;11634;42.734;23.298;2023-07-20T08:33:53;8.18;;;2.72;;
22937;SDS011;11634;42.734;23.298;2023-07-20T08:36:18;7.50;;;2.97;;
22937;SDS011;11634;42.734;23.298;2023-07-20T08:38:44;7.80;;;3.00;;
22937;SDS011;11634;42.734;23.298;2023-07-20T08:41:10;10.88;;;2.90;;
22937;SDS011;11634;42.734;23.298;2023-07-20T08:43:35;7.28;;;2.58;;
22937;SDS011;11634;42.734;23.298;2023-07-20T08:46:02;7.47;;;3.13;;
22937;SDS011;11634;42.734;23.298;2023-07-20T08:48:28;8.43;;;2.70;;
22937;SDS011;11634;42.734;23.298;2023-07-20T08:50:55;6.95;;;3.15;;
22937;SDS011;11634;42.734;23.298;2023-07-20T08:53:22;8.43;;;2.90;;
22937;SDS011;11634;42.734;23.298;2023-07-20T08:55:48;8.27;;;2.95;;
22937;SDS011;11634;42.734;23.298;2023-07-20T08:58:15;8.40;;;2.80;;
22937;SDS011;11634;42.734;23.298;2023-07-20T09:00:41;8.63;;;2.60;;
22937;SDS011;11634;42.734;23.298;2023-07-20T09:03:06;9.18;;;2.78;;
22937;SDS011;11634;42.734;23.298;2023-07-20T09:05:33;8.07;;;3.03;;
22937;SDS011;11634;42.734;23.298;2023-07-20T09:08:07;7.60;;;2.92;;
22937;SDS011;11634;42.734;23.298;2023-07-20T09:10:33;8.55;;;3.40;;
22937;SDS011;11634;42.734;23.298;2023-07-20T09:12:58;8.32;;;2.75;;
22937;SDS011;11634;42.734;23.298;2023-07-20T09:15:29;8.20;;;3.00;;
22937;SDS011;11634;42.734;23.298;2023-07-20T09:17:55;7.32;;;2.88;;
22937;SDS011;11634;42.734;23.298;2023-07-20T09:20:22;6.63;;;2.63;;
22937;SDS011;11634;42.734;23.298;2023-07-20T09:22:51;5.53;;;2.90;;
22937;SDS011;11634;42.734;23.298;2023-07-20T09:25:20;20.10;;;3.70;;
22937;SDS011;11634;42.734;23.298;2023-07-20T09:27:48;9.63;;;2.65;;
22937;SDS011;11634;42.734;23.298;2023-07-20T09:30:15;6.40;;;2.47;;
22937;SDS011;11634;42.734;23.298;2023-07-20T09:35:12;6.07;;;2.47;;
22937;SDS011;11634;42.734;23.298;2023-07-20T09:37:47;8.18;;;2.90;;
22937;SDS011;11634;42.734;23.298;2023-07-20T09:40:16;6.82;;;3.10;;
22937;SDS011;11634;42.734;23.298;2023-07-20T09:42:45;10.43;;;2.78;;
22937;SDS011;11634;42.734;23.298;2023-07-20T09:45:13;8.95;;;2.92;;
22937;SDS011;11634;42.734;23.298;2023-07-20T09:47:39;10.38;;;2.92;;
22937;SDS011;11634;42.734;23.298;2023-07-20T09:50:05;10.50;;;2.92;;
22937;SDS011;11634;42.734;23.298;2023-07-20T09:52:35;6.78;;;2.40;;
22937;SDS011;11634;42.734;23.298;2023-07-20T09:55:03;6.05;;;2.58;;
22937;SDS011;11634;42.734;23.298;2023-07-20T09:57:28;8.27;;;2.58;;
22937;SDS011;11634;42.734;23.298;2023-07-20T09:59:54;6.35;;;2.40;;
22937;SDS011;11634;42.734;23.298;2023-07-20T10:02:20;6.60;;;2.60;;
22937;SDS011;11634;42.734;23.298;2023-07-20T10:04:52;9.70;;;2.50;;
22937;SDS011;11634;42.734;23.298;2023-07-20T10:07:18;9.65;;;3.10;;
22937;SDS011;11634;42.734;23.298;2023-07-20T10:09:48;10.70;;;2.50;;
22937;SDS011;11634;42.734;23.298;2023-07-20T10:12:19;6.15;;;2.47;;
22937;SDS011;11634;42.734;23.298;2023-07-20T10:14:52;7.30;;;2.53;;
22937;SDS011;11634;42.734;23.298;2023-07-20T10:17:20;7.88;;;3.63;;
22937;SDS011;11634;42.734;23.298;2023-07-20T10:19:54;9.75;;;3.92;;
22937;SDS011;11634;42.734;23.298;2023-07-20T10:22:27;6.22;;;2.50;;
22937;SDS011;11634;42.734;23.298;2023-07-20T10:24:55;6.50;;;2.55;;
22937;SDS011;11634;42.734;23.298;2023-07-20T10:27:23;5.55;;;2.03;;
22937;SDS011;11634;42.734;23.298;2023-07-20T10:29:49;7.57;;;2.70;;
22937;SDS011;11634;42.734;23.298;2023-07-20T10:32:16;89.57;;;8.82;;
22937;SDS011;11634;42.734;23.298;2023-07-20T10:34:49;6.38;;;2.33;;
22937;SDS011;11634;42.734;23.298;2023-07-20T10:37:45;4.82;;;2.33;;
22937;SDS011;11634;42.734;23.298;2023-07-20T10:40:23;8.40;;;2.65;;
22937;SDS011;11634;42.734;23.298;2023-07-20T10:42:47;7.10;;;2.97;;
22937;SDS011;11634;42.734;23.298;2023-07-20T10:45:13;6.68;;;2.70;;
22937;SDS011;11634;42.734;23.298;2023-07-20T10:47:45;6.85;;;2.78;;
22937;SDS011;11634;42.734;23.298;2023-07-20T10:50:10;7.95;;;2.40;;
22937;SDS011;11634;42.734;23.298;2023-07-20T10:52:37;8.38;;;2.75;;
22937;SDS011;11634;42.734;23.298;2023-07-20T10:55:16;8.90;;;2.83;;
22937;SDS011;11634;42.734;23.298;2023-07-20T10:57:42;7.85;;;2.40;;
22937;SDS011;11634;42.734;23.298;2023-07-20T11:00:11;5.72;;;2.70;;
22937;SDS011;11634;42.734;23.298;2023-07-20T11:02:47;10.63;;;2.97;;
22937;SDS011;11634;42.734;23.298;2023-07-20T11:05:32;8.88;;;3.03;;
22937;SDS011;11634;42.734;23.298;2023-07-20T11:07:59;8.02;;;2.60;;
22937;SDS011;11634;42.734;23.298;2023-07-20T11:10:25;6.07;;;2.25;;
22937;SDS011;11634;42.734;23.298;2023-07-20T11:18:30;7.22;;;2.33;;
22937;SDS011;11634;42.734;23.298;2023-07-20T11:20:57;46.97;;;5.30;;
22937;SDS011;11634;42.734;23.298;2023-07-20T11:23:23;10.27;;;2.95;;
22937;SDS011;11634;42.734;23.298;2023-07-20T11:25:49;7.85;;;2.72;;
22937;SDS011;11634;42.734;23.298;2023-07-20T11:28:21;7.45;;;2.95;;
22937;SDS011;11634;42.734;23.298;2023-07-20T11:30:49;4.70;;;2.60;;
22937;SDS011;11634;42.734;23.298;2023-07-20T11:33:15;6.63;;;2.47;;
22937;SDS011;11634;42.734;23.298;2023-07-20T11:35:44;6.68;;;3.10;;
22937;SDS011;11634;42.734;23.298;2023-07-20T11:38:11;7.13;;;3.15;;
22937;SDS011;11634;42.734;23.298;2023-07-20T11:40:42;6.10;;;3.13;;
22937;SDS011;11634;42.734;23.298;2023-07-20T11:43:08;11.75;;;3.65;;
22937;SDS011;11634;42.734;23.298;2023-07-20T11:45:33;6.63;;;3.10;;
22937;SDS011;11634;42.734;23.298;2023-07-20T11:47:59;6.32;;;3.03;;
22937;SDS011;11634;42.734;23.298;2023-07-20T11:50:25;7.35;;;3.28;;
22937;SDS011;11634;42.734;23.298;2023-07-20T11:52:51;8.77;;;3.13;;
22937;SDS011;11634;42.734;23.298;2023-07-20T11:55:18;5.97;;;2.88;;
22937;SDS011;11634;42.734;23.298;2023-07-20T11:58:00;9.23;;;3.53;;
22937;SDS011;11634;42.734;23.298;2023-07-20T12:00:25;7.95;;;3.10;;
22937;SDS011;11634;42.734;23.298;2023-07-20T12:02:53;8.57;;;3.60;;
22937;SDS011;11634;42.734;23.298;2023-07-20T12:05:24;9.18;;;3.58;;
22937;SDS011;11634;42.734;23.298;2023-07-20T12:07:51;7.65;;;3.35;;
22937;SDS011;11634;42.734;23.298;2023-07-20T12:10:22;9.30;;;3.03;;
22937;SDS011;11634;42.734;23.298;2023-07-20T12:12:48;10.20;;;3.00;;
22937;SDS011;11634;42.734;23.298;2023-07-20T12:17:45;7.47;;;2.80;;
22937;SDS011;11634;42.734;23.298;2023-07-20T12:20:11;4.50;;;2.80;;
22937;SDS011;11634;42.734;23.298;2023-07-20T12:22:40;7.75;;;3.00;;
22937;SDS011;11634;42.734;23.298;2023-07-20T12:25:06;8.05;;;3.03;;
22937;SDS011;11634;42.734;23.298;2023-07-20T12:27:38;8.55;;;3.13;;
22937;SDS011;11634;42.734;23.298;2023-07-20T12:30:05;6.93;;;3.50;;
22937;SDS011;11634;42.734;23.298;2023-07-20T12:32:30;8.38;;;3.38;;
22937;SDS011;11634;42.734;23.298;2023-07-20T12:34:56;6.32;;;3.05;;
22937;SDS011;11634;42.734;23.298;2023-07-20T12:37:22;7.10;;;3.05;;
22937;SDS011;11634;42.734;23.298;2023-07-20T12:39:47;5.43;;;2.95;;
22937;SDS011;11634;42.734;23.298;2023-07-20T12:42:13;5.85;;;2.58;;
22937;SDS011;11634;42.734;23.298;2023-07-20T12:44:40;8.35;;;2.47;;
22937;SDS011;11634;42.734;23.298;2023-07-20T12:47:05;7.55;;;2.95;;
22937;SDS011;11634;42.734;23.298;2023-07-20T12:49:34;10.38;;;2.67;;
22937;SDS011;11634;42.734;23.298;2023-07-20T12:51:59;7.82;;;2.85;;
22937;SDS011;11634;42.734;23.298;2023-07-20T12:54:25;7.65;;;2.88;;
22937;SDS011;11634;42.734;23.298;2023-07-20T12:56:50;6.35;;;2.88;;
22937;SDS011;11634;42.734;23.298;2023-07-20T12:59:16;8.52;;;3.25;;
22937;SDS011;11634;42.734;23.298;2023-07-20T13:01:44;10.05;;;2.58;;
22937;SDS011;11634;42.734;23.298;2023-07-20T13:04:10;8.43;;;3.60;;
22937;SDS011;11634;42.734;23.298;2023-07-20T13:06:35;9.82;;;2.88;;
22937;SDS011;11634;42.734;23.298;2023-07-20T13:09:02;6.30;;;2.95;;
22937;SDS011;11634;42.734;23.298;2023-07-20T13:11:28;6.22;;;2.63;;
22937;SDS011;11634;42.734;23.298;2023-07-20T13:13:53;5.22;;;2.85;;
22937;SDS011;11634;42.734;23.298;2023-07-20T13:16:19;10.65;;;3.08;;
22937;SDS011;11634;42.734;23.298;2023-07-20T13:18:44;10.35;;;3.22;;
22937;SDS011;11634;42.734;23.298;2023-07-20T13:21:10;7.57;;;2.85;;
22937;SDS011;11634;42.734;23.298;2023-07-20T13:23:37;9.52;;;3.35;;
22937;SDS011;11634;42.734;23.298;2023-07-20T13:26:05;7.63;;;2.70;;
22937;SDS011;11634;42.734;23.298;2023-07-20T13:28:31;6.85;;;2.42;;
22937;SDS011;11634;42.734;23.298;2023-07-20T13:30:59;6.22;;;2.95;;
22937;SDS011;11634;42.734;23.298;2023-07-20T13:33:25;6.47;;;2.72;;
22937;SDS011;11634;42.734;23.298;2023-07-20T13:35:50;5.75;;;2.75;;
22937;SDS011;11634;42.734;23.298;2023-07-20T13:38:16;5.22;;;2.65;;
22937;SDS011;11634;42.734;23.298;2023-07-20T13:40:41;9.55;;;3.13;;
22937;SDS011;11634;42.734;23.298;2023-07-20T13:43:07;6.05;;;2.45;;
22937;SDS011;11634;42.734;23.298;2023-07-20T13:45:33;6.22;;;2.67;;
22937;SDS011;11634;42.734;23.298;2023-07-20T13:47:58;7.93;;;2.80;;
22937;SDS011;11634;42.734;23.298;2023-07-20T13:50:24;19.45;;;4.18;;
22937;SDS011;11634;42.734;23.298;2023-07-20T13:52:49;8.20;;;2.80;;
22937;SDS011;11634;42.734;23.298;2023-07-20T13:55:14;6.97;;;2.47;;
22937;SDS011;11634;42.734;23.298;2023-07-20T13:57:40;6.40;;;2.13;;
22937;SDS011;11634;42.734;23.298;2023-07-20T14:00:05;7.40;;;2.33;;
22937;SDS011;11634;42.734;23.298;2023-07-20T14:02:40;6.10;;;2.45;;
22937;SDS011;11634;42.734;23.298;2023-07-20T14:05:05;9.85;;;2.58;;
22937;SDS011;11634;42.734;23.298;2023-07-20T14:07:31;10.73;;;2.88;;
22937;SDS011;11634;42.734;23.298;2023-07-20T14:09:56;9.00;;;2.80;;
22937;SDS011;11634;42.734;23.298;2023-07-20T14:12:22;9.93;;;3.00;;
22937;SDS011;11634;42.734;23.298;2023-07-20T14:14:47;4.80;;;2.40;;
22937;SDS011;11634;42.734;23.298;2023-07-20T14:17:13;11.77;;;3.05;;
22937;SDS011;11634;42.734;23.298;2023-07-20T14:19:39;9.95;;;2.65;;
22937;SDS011;11634;42.734;23.298;2023-07-20T14:22:04;5.28;;;2.35;;
22937;SDS011;11634;42.734;23.298;2023-07-20T14:24:30;10.02;;;2.53;;
22937;SDS011;11634;42.734;23.298;2023-07-20T14:26:56;8.35;;;2.95;;
22937;SDS011;11634;42.734;23.298;2023-07-20T14:29:21;7.35;;;2.70;;
22937;SDS011;11634;42.734;23.298;2023-07-20T14:31:47;8.40;;;3.10;;
22937;SDS011;11634;42.734;23.298;2023-07-20T14:34:16;9.52;;;2.65;;
22937;SDS011;11634;42.734;23.298;2023-07-20T14:36:41;8.02;;;2.83;;
22937;SDS011;11634;42.734;23.298;2023-07-20T14:39:07;5.60;;;2.30;;
22937;SDS011;11634;42.734;23.298;2023-07-20T14:41:32;8.15;;;2.42;;
22937;SDS011;11634;42.734;23.298;2023-07-20T14:43:58;7.57;;;2.80;;
22937;SDS011;11634;42.734;23.298;2023-07-20T14:46:23;7.90;;;2.70;;
22937;SDS011;11634;42.734;23.298;2023-07-20T14:48:49;6.07;;;2.70;;